createdAt,value
2017-11-03T00:01:37.461Z,29.98
2017-11-03T00:04:05.509Z,25.77
2017-11-03T00:06:33.579Z,28.10
2017-11-03T00:09:02.398Z,19.02
2017-11-03T00:11:30.488Z,22.87
2017-11-03T00:13:58.549Z,19.80
2017-11-03T00:16:26.621Z,20.67
2017-11-03T00:18:55.436Z,20.77
2017-11-03T00:21:24.284Z,19.42
2017-11-03T00:23:52.342Z,21.52
2017-11-03T00:26:20.397Z,19.42
2017-11-03T00:28:48.481Z,20.58
2017-11-03T00:31:16.538Z,27.70
2017-11-03T00:33:44.598Z,22.45
2017-11-03T00:36:12.686Z,18.60
2017-11-03T00:38:40.745Z,20.67
2017-11-03T00:41:08.805Z,18.98
2017-11-03T00:43:37.646Z,17.35
2017-11-03T00:46:05.702Z,19.75
2017-11-03T00:48:33.786Z,16.92
2017-11-03T00:51:02.610Z,18.50
2017-11-03T00:53:30.666Z,15.85
2017-11-03T00:55:58.738Z,20.95
2017-11-03T00:58:26.790Z,21.48
2017-11-03T01:00:54.863Z,24.12
2017-11-03T01:03:23.686Z,18.23
2017-11-03T01:05:51.761Z,17.15
2017-11-03T01:08:19.838Z,16.08
2017-11-03T01:10:47.893Z,18.60
2017-11-03T01:13:15.973Z,19.42
2017-11-03T01:15:44.035Z,16.30
2017-11-03T01:18:12.108Z,17.90
2017-11-03T01:20:41.685Z,19.58
2017-11-03T01:23:09.748Z,18.85
2017-11-03T01:25:37.807Z,22.33
2017-11-03T01:28:06.647Z,18.60
2017-11-03T01:30:34.699Z,20.37
2017-11-03T01:33:02.777Z,17.12
2017-11-03T01:35:30.825Z,18.70
2017-11-03T01:37:59.667Z,15.52
2017-11-03T01:40:27.722Z,19.08
2017-11-03T01:42:55.782Z,23.70
2017-11-03T01:45:23.845Z,17.25
2017-11-03T01:47:51.902Z,20.67
2017-11-03T01:50:19.973Z,20.33
2017-11-03T01:52:48.053Z,26.60
2017-11-03T01:55:16.889Z,20.15
2017-11-03T01:57:45.358Z,18.27
2017-11-03T02:00:13.418Z,23.40
2017-11-03T02:02:41.883Z,24.55
2017-11-03T02:05:09.937Z,20.02
2017-11-03T02:07:38.013Z,17.83
2017-11-03T02:10:06.466Z,24.55
2017-11-03T02:12:35.281Z,20.48
2017-11-03T02:15:03.349Z,19.20
2017-11-03T02:17:31.419Z,21.45
2017-11-03T02:19:59.473Z,21.45
2017-11-03T02:22:27.538Z,25.17
2017-11-03T02:24:56.000Z,22.37
2017-11-03T02:27:24.061Z,19.00
2017-11-03T02:29:52.142Z,19.23
2017-11-03T02:32:20.195Z,18.20
2017-11-03T02:34:48.249Z,18.58
2017-11-03T02:37:16.321Z,22.95
2017-11-03T02:39:44.381Z,18.62
2017-11-03T02:42:12.830Z,22.55
2017-11-03T02:44:41.670Z,19.20
2017-11-03T02:47:09.730Z,20.70
2017-11-03T02:49:37.809Z,18.70
2017-11-03T02:52:05.866Z,20.73
2017-11-03T02:54:33.917Z,22.10
2017-11-03T02:57:03.135Z,19.73
2017-11-03T02:59:31.200Z,18.55
2017-11-03T03:01:59.262Z,20.05
2017-11-03T03:04:28.100Z,18.58
2017-11-03T03:06:56.157Z,19.10
2017-11-03T03:09:24.209Z,19.52
2017-11-03T03:11:52.295Z,17.48
2017-11-03T03:14:21.126Z,25.42
2017-11-03T03:16:49.948Z,16.92
2017-11-03T03:19:18.011Z,26.65
2017-11-03T03:21:46.466Z,15.73
2017-11-03T03:24:14.535Z,17.65
2017-11-03T03:26:42.995Z,18.20
2017-11-03T03:29:11.059Z,19.37
2017-11-03T03:31:39.121Z,17.23
2017-11-03T03:34:07.195Z,19.80
2017-11-03T03:36:35.265Z,15.07
2017-11-03T03:39:03.326Z,16.23
2017-11-03T03:41:32.761Z,18.62
2017-11-03T03:44:00.726Z,17.40
2017-11-03T03:46:29.569Z,15.45
2017-11-03T03:48:58.026Z,14.40
2017-11-03T03:51:27.442Z,17.10
2017-11-03T03:53:55.426Z,13.75
2017-11-03T03:56:24.617Z,14.93
2017-11-03T03:58:52.694Z,15.73
2017-11-03T04:01:22.101Z,15.23
2017-11-03T04:03:50.078Z,18.45
2017-11-03T04:06:18.917Z,19.45
2017-11-03T04:08:46.985Z,13.32
2017-11-03T04:11:15.077Z,17.35
2017-11-03T04:13:43.891Z,13.73
2017-11-03T04:16:11.945Z,14.98
2017-11-03T04:18:40.786Z,16.75
2017-11-03T04:21:09.243Z,14.65
2017-11-03T04:23:37.293Z,12.55
2017-11-03T04:26:05.763Z,11.80
2017-11-03T04:28:34.600Z,14.90
2017-11-03T04:31:02.697Z,15.45
2017-11-03T04:33:31.150Z,16.45
2017-11-03T04:35:59.222Z,19.12
2017-11-03T04:38:27.281Z,14.38
2017-11-03T04:40:55.357Z,14.65
2017-11-03T04:43:23.409Z,17.65
2017-11-03T04:45:51.481Z,13.60
2017-11-03T04:48:19.553Z,13.32
2017-11-03T04:50:48.398Z,12.30
2017-11-03T04:53:16.450Z,17.05
2017-11-03T04:55:44.542Z,14.45
2017-11-03T04:58:12.588Z,12.80
2017-11-03T05:00:42.021Z,14.35
2017-11-03T05:03:10.398Z,12.73
2017-11-03T05:05:38.458Z,16.45
2017-11-03T05:08:06.543Z,11.77
2017-11-03T05:10:34.598Z,16.83
2017-11-03T05:13:02.649Z,13.55
2017-11-03T05:15:31.494Z,13.70
2017-11-03T05:17:59.587Z,12.60
2017-11-03T05:20:27.628Z,18.55
2017-11-03T05:22:56.834Z,13.98
2017-11-03T05:25:24.884Z,12.80
2017-11-03T05:27:52.959Z,11.88
2017-11-03T05:30:21.022Z,15.13
2017-11-03T05:32:49.085Z,15.65
2017-11-03T05:35:17.903Z,13.93
2017-11-03T05:37:45.969Z,15.55
2017-11-03T05:40:15.389Z,12.90
2017-11-03T05:42:44.124Z,13.35
2017-11-03T05:45:12.181Z,13.50
2017-11-03T05:47:40.245Z,12.00
2017-11-03T05:50:08.305Z,16.75
2017-11-03T05:52:37.139Z,14.50
2017-11-03T05:55:05.210Z,26.55
2017-11-03T05:57:34.049Z,19.95
2017-11-03T06:00:03.457Z,22.23
2017-11-03T06:02:31.437Z,16.40
2017-11-03T06:04:59.507Z,17.12
2017-11-03T06:07:29.099Z,18.00
2017-11-03T06:12:33.442Z,17.85
2017-11-03T06:15:02.273Z,15.65
2017-11-03T06:17:30.345Z,17.58
2017-11-03T06:19:59.909Z,17.50
2017-11-03T06:22:28.771Z,19.02
2017-11-03T06:24:56.914Z,17.35
2017-11-03T06:27:24.982Z,19.80
2017-11-03T06:29:53.449Z,21.08
2017-11-03T06:32:22.876Z,23.65
2017-11-03T06:34:50.941Z,21.20
2017-11-03T06:37:19.113Z,24.35
2017-11-03T06:39:47.284Z,24.85
2017-11-03T06:42:15.365Z,27.27
2017-11-03T06:44:43.534Z,20.58
2017-11-03T06:47:11.615Z,18.17
2017-11-03T06:49:39.779Z,19.60
2017-11-03T06:52:07.856Z,19.00
2017-11-03T06:54:35.914Z,18.65
2017-11-03T06:57:03.978Z,22.00
2017-11-03T06:59:32.070Z,19.48
2017-11-03T07:02:00.128Z,25.52
2017-11-03T07:04:28.197Z,25.70
2017-11-03T07:06:56.675Z,22.52
2017-11-03T07:09:24.742Z,18.35
2017-11-03T07:11:52.831Z,22.55
2017-11-03T07:14:21.018Z,22.15
2017-11-03T07:16:49.214Z,26.33
2017-11-03T07:19:17.689Z,20.27
2017-11-03T07:21:45.841Z,20.48
2017-11-03T07:24:13.914Z,23.08
2017-11-03T07:26:42.008Z,19.60
2017-11-03T07:29:10.057Z,25.15
2017-11-03T07:31:38.896Z,22.10
2017-11-03T07:34:07.019Z,19.83
2017-11-03T07:36:35.194Z,19.33
2017-11-03T07:39:03.253Z,21.62
2017-11-03T07:41:31.334Z,24.08
2017-11-03T07:43:59.400Z,17.52
2017-11-03T07:46:27.458Z,18.10
2017-11-03T07:48:55.550Z,15.57
2017-11-03T07:51:23.617Z,20.30
2017-11-03T07:53:51.699Z,22.05
2017-11-03T07:56:21.223Z,21.52
2017-11-03T07:58:49.618Z,25.62
2017-11-03T08:01:17.692Z,27.40
2017-11-03T08:03:45.755Z,23.27
2017-11-03T08:06:14.301Z,21.02
2017-11-03T08:08:42.477Z,20.05
2017-11-03T08:11:10.553Z,24.37
2017-11-03T08:13:38.616Z,19.62
2017-11-03T08:16:06.688Z,21.75
2017-11-03T08:18:35.884Z,25.48
2017-11-03T08:21:03.962Z,23.42
2017-11-03T08:23:32.042Z,24.27
2017-11-03T08:26:00.209Z,25.80
2017-11-03T08:28:28.381Z,18.98
2017-11-03T08:30:57.282Z,17.98
2017-11-03T08:33:25.370Z,23.12
2017-11-03T08:35:53.446Z,18.12
2017-11-03T08:38:21.597Z,18.10
2017-11-03T08:40:49.773Z,19.62
2017-11-03T08:43:17.944Z,21.17
2017-11-03T08:45:46.018Z,24.67
2017-11-03T08:48:14.185Z,25.37
2017-11-03T08:50:42.370Z,19.65
2017-11-03T08:53:11.933Z,19.55
2017-11-03T08:55:41.577Z,18.15
2017-11-03T08:58:10.166Z,22.42
2017-11-03T09:00:38.238Z,22.00
2017-11-03T09:03:06.309Z,24.12
2017-11-03T09:05:34.480Z,23.85
2017-11-03T09:08:02.536Z,20.37
2017-11-03T09:10:30.631Z,25.10
2017-11-03T09:12:58.802Z,22.23
2017-11-03T09:15:26.873Z,24.08
2017-11-03T09:17:54.932Z,21.05
2017-11-03T09:20:23.777Z,21.95
2017-11-03T09:22:51.914Z,20.70
2017-11-03T09:25:19.981Z,21.05
2017-11-03T09:27:48.870Z,24.25
2017-11-03T09:30:16.937Z,22.17
2017-11-03T09:32:45.017Z,23.27
2017-11-03T09:35:13.117Z,22.58
2017-11-03T09:37:41.252Z,19.87
2017-11-03T09:40:10.563Z,21.95
2017-11-03T09:42:38.738Z,22.08
2017-11-03T09:45:06.806Z,22.48
2017-11-03T09:47:34.869Z,22.48
2017-11-03T09:50:02.937Z,26.55
2017-11-03T09:52:31.005Z,27.08
2017-11-03T09:54:59.137Z,21.60
2017-11-03T09:57:27.694Z,25.08
2017-11-03T09:59:55.860Z,25.85
2017-11-03T10:02:23.921Z,27.13
2017-11-03T10:04:52.769Z,22.52
2017-11-03T10:07:21.601Z,25.45
2017-11-03T10:09:49.662Z,23.30
2017-11-03T10:12:17.751Z,24.98
2017-11-03T10:14:45.833Z,22.70
2017-11-03T10:17:14.712Z,24.15
2017-11-03T10:19:43.534Z,24.77
2017-11-03T10:22:11.668Z,28.00
2017-11-03T10:24:39.733Z,25.95
2017-11-03T10:27:07.813Z,27.13
2017-11-03T10:29:35.994Z,23.92
2017-11-03T10:32:04.061Z,23.80
2017-11-03T10:34:32.139Z,24.08
2017-11-03T10:37:00.213Z,25.05
2017-11-03T10:39:28.274Z,23.70
2017-11-03T10:41:56.359Z,24.60
2017-11-03T10:44:25.191Z,22.20
2017-11-03T10:46:53.268Z,23.60
2017-11-03T10:49:21.721Z,23.77
2017-11-03T10:51:49.861Z,23.85
2017-11-03T10:54:18.753Z,23.40
2017-11-03T10:56:46.929Z,23.23
2017-11-03T10:59:14.980Z,24.30
2017-11-03T11:01:43.045Z,26.62
2017-11-03T11:04:11.971Z,25.40
2017-11-03T11:06:40.141Z,24.70
2017-11-03T11:09:08.317Z,25.33
2017-11-03T11:11:36.406Z,26.12
2017-11-03T11:14:04.873Z,26.30
2017-11-03T11:16:32.935Z,25.67
2017-11-03T11:19:01.006Z,28.35
2017-11-03T11:21:29.066Z,24.45
2017-11-03T11:23:57.991Z,23.48
2017-11-03T11:26:26.764Z,23.30
2017-11-03T11:28:54.938Z,22.77
2017-11-03T11:31:23.110Z,24.15
2017-11-03T11:33:51.172Z,23.62
2017-11-03T11:36:19.258Z,23.92
2017-11-03T11:38:47.330Z,22.85
2017-11-03T11:41:15.397Z,24.30
2017-11-03T11:43:43.881Z,22.42
2017-11-03T11:46:11.941Z,21.70
2017-11-03T11:48:40.029Z,22.55
2017-11-03T11:51:08.317Z,23.90
2017-11-03T11:53:36.374Z,22.45
2017-11-03T11:56:04.433Z,26.10
2017-11-03T11:58:32.517Z,22.45
2017-11-03T12:01:00.578Z,29.67
2017-11-03T12:03:28.650Z,24.40
2017-11-03T12:05:57.548Z,25.05
2017-11-03T12:08:25.616Z,22.85
2017-11-03T12:10:53.798Z,23.73
2017-11-03T12:13:21.861Z,21.23
2017-11-03T12:15:49.928Z,25.35
2017-11-03T12:18:18.114Z,22.55
2017-11-03T12:20:46.178Z,21.98
2017-11-03T12:23:14.242Z,23.25
2017-11-03T12:25:42.334Z,23.08
2017-11-03T12:28:10.397Z,21.50
2017-11-03T12:30:38.469Z,20.98
2017-11-03T12:33:06.649Z,25.23
2017-11-03T12:35:34.718Z,24.52
2017-11-03T12:38:02.903Z,24.85
2017-11-03T12:40:31.006Z,26.37
2017-11-03T12:42:59.141Z,24.37
2017-11-03T12:45:27.241Z,22.60
2017-11-03T12:47:55.299Z,21.87
2017-11-03T12:50:23.483Z,27.80
2017-11-03T12:52:51.633Z,24.92
2017-11-03T12:55:19.810Z,22.73
2017-11-03T12:57:47.865Z,24.25
2017-11-03T13:00:16.369Z,25.55
2017-11-03T13:02:44.448Z,23.40
2017-11-03T13:05:12.510Z,20.73
2017-11-03T13:07:40.680Z,20.80
2017-11-03T13:10:08.750Z,22.52
2017-11-03T13:12:36.922Z,26.80
2017-11-03T13:15:04.986Z,30.05
2017-11-03T13:17:33.058Z,28.10
2017-11-03T13:20:01.137Z,29.37
2017-11-03T13:22:29.995Z,27.17
2017-11-03T13:24:58.822Z,30.20
2017-11-03T13:27:26.873Z,30.92
2017-11-03T13:29:55.369Z,27.58
2017-11-03T13:32:23.429Z,30.55
2017-11-03T13:34:52.347Z,26.83
2017-11-03T13:37:20.801Z,29.90
2017-11-03T13:39:48.885Z,27.27
2017-11-03T13:42:16.957Z,24.75
2017-11-03T13:44:45.039Z,29.58
2017-11-03T13:47:13.200Z,24.67
2017-11-03T13:49:41.385Z,26.98
2017-11-03T13:52:09.462Z,28.98
2017-11-03T13:54:37.624Z,25.48
2017-11-03T13:57:05.690Z,25.50
2017-11-03T13:59:33.795Z,24.40
2017-11-03T14:02:01.945Z,25.73
2017-11-03T14:04:31.305Z,24.83
2017-11-03T14:06:59.830Z,28.17
2017-11-03T14:09:28.305Z,27.37
2017-11-03T14:11:56.386Z,23.77
2017-11-03T14:14:24.449Z,24.95
2017-11-03T14:16:52.550Z,29.95
2017-11-03T14:19:20.593Z,23.48
2017-11-03T14:21:48.669Z,24.75
2017-11-03T14:24:16.737Z,26.60
2017-11-03T14:26:46.349Z,28.98
2017-11-03T14:29:14.433Z,24.92
2017-11-03T14:31:43.244Z,28.30
2017-11-03T14:34:11.386Z,25.37
2017-11-03T14:36:39.438Z,26.60
2017-11-03T14:39:07.499Z,25.10
2017-11-03T14:41:36.459Z,25.17
2017-11-03T14:44:04.517Z,22.87
2017-11-03T14:46:32.600Z,25.17
2017-11-03T14:49:01.149Z,25.73
2017-11-03T14:51:29.217Z,30.27
2017-11-03T14:53:57.294Z,26.00
2017-11-03T14:56:25.467Z,29.12
2017-11-03T14:58:53.530Z,25.10
2017-11-03T15:01:21.726Z,30.48
2017-11-03T15:03:49.896Z,28.87
2017-11-03T15:06:18.057Z,27.40
2017-11-03T15:08:46.129Z,25.12
2017-11-03T15:11:14.215Z,29.73
2017-11-03T15:13:42.647Z,25.27
2017-11-03T15:16:10.653Z,27.98
2017-11-03T15:18:38.834Z,25.70
2017-11-03T15:21:08.021Z,26.73
2017-11-03T15:23:36.196Z,31.52
2017-11-03T15:26:04.277Z,28.33
2017-11-03T15:28:32.449Z,27.23
2017-11-03T15:31:00.530Z,28.52
2017-11-03T15:33:29.405Z,27.35
2017-11-03T15:35:57.586Z,27.20
2017-11-03T15:38:25.658Z,27.05
2017-11-03T15:40:53.729Z,27.00
2017-11-03T15:43:21.907Z,29.98
2017-11-03T15:45:50.078Z,26.65
2017-11-03T15:48:18.154Z,22.90
2017-11-03T15:50:46.237Z,26.80
2017-11-03T15:53:14.324Z,27.92
2017-11-03T15:55:42.464Z,28.60
2017-11-03T15:58:10.517Z,27.92
2017-11-03T16:00:38.618Z,37.05
2017-11-03T16:03:06.782Z,32.08
2017-11-03T16:05:34.859Z,25.05
2017-11-03T16:08:02.934Z,22.55
2017-11-03T16:10:31.109Z,28.75
2017-11-03T16:12:59.300Z,29.92
2017-11-03T16:15:27.385Z,32.10
2017-11-03T16:17:55.526Z,31.77
2017-11-03T16:20:23.589Z,33.30
2017-11-03T16:22:51.661Z,35.95
2017-11-03T16:25:19.837Z,24.08
2017-11-03T16:27:48.009Z,24.80
2017-11-03T16:30:17.438Z,29.73
2017-11-03T16:32:45.494Z,24.23
2017-11-03T16:35:13.553Z,20.92
2017-11-03T16:37:41.649Z,22.00
2017-11-03T16:40:09.713Z,25.02
2017-11-03T16:42:37.830Z,25.05
2017-11-03T16:45:06.782Z,20.65
2017-11-03T16:47:35.249Z,23.45
2017-11-03T16:50:03.297Z,24.45
2017-11-03T16:52:31.385Z,22.00
2017-11-03T16:54:59.573Z,24.17
2017-11-03T16:57:28.774Z,20.33
2017-11-03T16:59:57.042Z,24.60
2017-11-03T17:02:25.123Z,24.90
2017-11-03T17:04:53.297Z,24.87
2017-11-03T17:07:21.465Z,22.15
2017-11-03T17:09:51.046Z,22.10
2017-11-03T17:12:19.147Z,23.83
2017-11-03T17:14:47.218Z,23.62
2017-11-03T17:17:15.289Z,21.02
2017-11-03T17:19:43.365Z,23.48
2017-11-03T17:22:11.434Z,23.77
2017-11-03T17:24:39.522Z,20.60
2017-11-03T17:27:07.588Z,21.85
2017-11-03T17:29:35.662Z,29.48
2017-11-03T17:32:03.831Z,29.02
2017-11-03T17:34:31.998Z,30.88
2017-11-03T17:37:01.214Z,23.27
2017-11-03T17:39:29.375Z,22.90
2017-11-03T17:41:57.433Z,28.65
2017-11-03T17:44:25.612Z,30.02
2017-11-03T17:46:53.701Z,27.08
2017-11-03T17:49:21.761Z,30.33
2017-11-03T17:51:49.929Z,24.67
2017-11-03T17:54:18.120Z,29.08
2017-11-03T17:56:46.286Z,26.10
2017-11-03T17:59:14.358Z,24.35
2017-11-03T18:01:42.428Z,23.98
2017-11-03T18:04:10.503Z,24.83
2017-11-03T18:06:38.673Z,21.50
2017-11-03T18:09:06.749Z,24.52
2017-11-03T18:11:34.814Z,19.17
2017-11-03T18:14:02.864Z,22.20
2017-11-03T18:16:32.077Z,20.00
2017-11-03T18:19:01.276Z,23.50
2017-11-03T18:21:29.370Z,23.58
2017-11-03T18:23:57.426Z,24.12
2017-11-03T18:26:25.502Z,20.73
2017-11-03T18:28:53.570Z,25.88
2017-11-03T18:31:21.705Z,21.02
2017-11-03T18:33:50.955Z,26.67
2017-11-03T18:36:19.837Z,23.38
2017-11-03T18:38:49.381Z,30.65
2017-11-03T18:41:18.636Z,23.50
2017-11-03T18:43:47.186Z,23.80
2017-11-03T18:46:17.273Z,24.42
2017-11-03T18:48:45.438Z,24.45
2017-11-03T18:51:13.660Z,24.23
2017-11-03T18:53:42.503Z,25.58
2017-11-03T18:56:11.447Z,23.52
2017-11-03T18:58:40.667Z,24.85
2017-11-03T19:01:08.743Z,32.85
2017-11-03T19:03:37.597Z,28.35
2017-11-03T19:06:06.557Z,27.27
2017-11-03T19:08:35.772Z,29.73
2017-11-03T19:11:03.905Z,31.77
2017-11-03T19:13:33.213Z,29.42
2017-11-03T19:16:01.302Z,29.42
2017-11-03T19:18:30.187Z,29.50
2017-11-03T19:20:58.372Z,27.55
2017-11-03T19:23:27.383Z,30.27
2017-11-03T19:25:56.987Z,23.52
2017-11-03T19:28:26.596Z,34.55
2017-11-03T19:30:54.755Z,27.85
2017-11-03T19:33:22.883Z,26.77
2017-11-03T19:35:50.958Z,29.48
2017-11-03T19:38:19.078Z,28.45
2017-11-03T19:40:47.576Z,25.50
2017-11-03T19:43:16.426Z,25.45
2017-11-03T19:45:44.656Z,26.77
2017-11-03T19:48:14.090Z,30.85
2017-11-03T19:50:42.466Z,28.40
2017-11-03T19:53:10.667Z,28.80
2017-11-03T19:55:38.873Z,30.90
2017-11-03T19:58:07.378Z,29.05
2017-11-03T20:00:36.321Z,27.55
2017-11-03T20:03:04.822Z,32.30
2017-11-03T20:05:32.918Z,39.83
2017-11-03T20:08:02.851Z,40.47
2017-11-03T20:10:31.337Z,38.63
2017-11-03T20:12:59.830Z,33.03
2017-11-03T20:15:27.914Z,35.88
2017-11-03T20:17:57.151Z,26.73
2017-11-03T20:20:25.902Z,29.90
2017-11-03T20:22:54.737Z,24.10
2017-11-03T20:25:23.810Z,32.08
2017-11-03T20:27:51.858Z,24.70
2017-11-03T20:30:20.028Z,26.20
2017-11-03T20:32:48.085Z,28.12
2017-11-03T20:35:16.257Z,22.80
2017-11-03T20:37:44.329Z,33.53
2017-11-03T20:40:12.413Z,23.27
2017-11-03T20:42:40.478Z,25.77
2017-11-03T20:45:08.553Z,25.67
2017-11-03T20:47:37.853Z,30.17
2017-11-03T20:50:05.926Z,22.10
2017-11-03T20:52:34.027Z,22.98
2017-11-03T20:55:02.170Z,29.00
2017-11-03T20:57:34.321Z,26.23
2017-11-03T21:00:03.275Z,28.12
2017-11-03T21:02:31.334Z,25.60
2017-11-03T21:04:59.477Z,28.45
2017-11-03T21:07:27.972Z,30.15
2017-11-03T21:09:56.077Z,39.38
2017-11-03T21:12:24.226Z,30.92
2017-11-03T21:14:52.332Z,31.35
2017-11-03T21:17:20.471Z,29.02
2017-11-03T21:19:48.661Z,37.97
2017-11-03T21:22:16.769Z,40.28
2017-11-03T21:24:45.616Z,30.05
2017-11-03T21:27:13.793Z,35.53
2017-11-03T21:29:41.880Z,28.58
2017-11-03T21:32:10.060Z,37.90
2017-11-03T21:34:38.169Z,37.17
2017-11-03T21:37:07.397Z,35.50
2017-11-03T21:39:35.699Z,30.77
2017-11-03T21:42:03.758Z,23.10
2017-11-03T21:44:31.836Z,28.75
2017-11-03T21:46:59.947Z,26.48
2017-11-03T21:49:29.155Z,27.85
2017-11-03T21:51:57.606Z,33.33
2017-11-03T21:54:26.485Z,26.08
2017-11-03T21:56:54.636Z,27.10
2017-11-03T21:59:22.788Z,28.65
2017-11-03T22:01:50.857Z,29.25
2017-11-03T22:04:19.028Z,30.48
2017-11-03T22:06:47.205Z,32.83
2017-11-03T22:09:15.281Z,28.75
2017-11-03T22:11:43.449Z,29.48
2017-11-03T22:14:11.534Z,30.40
2017-11-03T22:16:39.706Z,28.25
2017-11-03T22:19:07.773Z,25.98
2017-11-03T22:21:35.949Z,30.73
2017-11-03T22:24:04.077Z,28.55
2017-11-03T22:26:33.553Z,26.67
2017-11-03T22:29:01.600Z,26.42
2017-11-03T22:31:29.668Z,28.05
2017-11-03T22:33:57.841Z,27.55
2017-11-03T22:36:26.019Z,27.13
2017-11-03T22:38:54.092Z,25.42
2017-11-03T22:41:22.270Z,28.15
2017-11-03T22:43:50.339Z,27.60
2017-11-03T22:46:18.417Z,30.30
2017-11-03T22:48:46.468Z,24.45
2017-11-03T22:51:14.559Z,35.47
2017-11-03T22:53:42.626Z,30.67
2017-11-03T22:56:10.682Z,31.80
2017-11-03T22:58:38.770Z,29.95
2017-11-03T23:01:06.854Z,30.33
2017-11-03T23:03:34.904Z,31.08
2017-11-03T23:06:02.977Z,30.02
2017-11-03T23:08:31.054Z,33.78
2017-11-03T23:10:59.132Z,27.83
2017-11-03T23:13:27.307Z,29.08
2017-11-03T23:15:55.378Z,34.10
2017-11-03T23:18:23.453Z,30.08
2017-11-03T23:20:51.613Z,31.75
2017-11-03T23:23:19.674Z,29.58
2017-11-03T23:25:47.766Z,29.50
2017-11-03T23:28:16.656Z,38.40
2017-11-03T23:30:45.105Z,33.00
2017-11-03T23:33:13.206Z,38.28
2017-11-03T23:35:41.282Z,35.55
2017-11-03T23:38:09.454Z,34.97
2017-11-03T23:40:37.656Z,38.25
2017-11-03T23:43:05.711Z,33.70
2017-11-03T23:45:33.874Z,31.73
2017-11-03T23:48:01.955Z,29.10
2017-11-03T23:50:30.014Z,38.45
2017-11-03T23:52:58.185Z,38.53
2017-11-03T23:55:26.257Z,33.55
2017-11-03T23:57:54.342Z,31.80
